Disclaimer

Please do not use the information listed here in-flight or in-navigation, as they are not provided to us by the airports but are provided by volunteers, so they might be outdated.

Search


Regions


Airport information page

Radio informations:
RDO - 118.05 MHz

Airport informations:
Latitude: 37° 13' 38.75" N
Longitude: 140° 25' 50.44" E
Elevation: 1221 feet - 372 meters
Operating hours: Remarks
Operating agency: Civil government, landing fees and diplomatic clearance may be required
Timezone: UTC+9
Fuel: Jet A1, without icing nhibitor.

Runway information:
01/19 - 8202 x 197 feet< - >2500 x 60 meters

Recent METARs:
RJSF 122140Z 36007KT 9999 FEW010 BKN020 11/08 Q1014 RMK 1ST010 7SC020 A2995

Airport on the map: